createdAt,value
2022-12-11T00:00:44.005Z,-1.2
2022-12-11T00:01:44.941Z,-1.2
2022-12-11T00:02:46.583Z,-1.2
2022-12-11T00:03:47.929Z,-1.3
2022-12-11T00:04:48.807Z,-1.3
2022-12-11T00:05:49.961Z,-1.3
2022-12-11T00:06:51.375Z,-1.3
2022-12-11T00:07:52.833Z,-1.3
2022-12-11T00:08:54.289Z,-1.3
2022-12-11T00:09:55.422Z,-1.3
2022-12-11T00:10:56.540Z,-1.3
2022-12-11T00:11:57.401Z,-1.3
2022-12-11T00:12:58.815Z,-1.3
2022-12-11T00:13:59.713Z,-1.3
2022-12-11T00:15:00.892Z,-1.3
2022-12-11T00:16:02.006Z,-1.3
2022-12-11T00:17:03.462Z,-1.3
2022-12-11T00:18:04.894Z,-1.3
2022-12-11T00:19:06.307Z,-1.3
2022-12-11T00:20:07.732Z,-1.3
2022-12-11T00:21:08.579Z,-1.3
2022-12-11T00:22:09.720Z,-1.3
2022-12-11T00:23:10.855Z,-1.3
2022-12-11T00:24:11.991Z,-1.3
2022-12-11T00:25:13.384Z,-1.3
2022-12-11T00:26:14.727Z,-1.2
2022-12-11T00:27:15.863Z,-1.2
2022-12-11T00:28:17.303Z,-1.2
2022-12-11T00:29:18.720Z,-1.2
2022-12-11T00:30:19.933Z,-1.2
2022-12-11T00:31:21.134Z,-1.2
2022-12-11T00:32:22.832Z,-1.2
2022-12-11T00:33:23.966Z,-1.2
2022-12-11T00:34:24.852Z,-1.2
2022-12-11T00:35:26.280Z,-1.2
2022-12-11T00:36:27.680Z,-1.2
2022-12-11T00:37:28.859Z,-1.2
2022-12-11T00:38:30.138Z,-1.2
2022-12-11T00:39:30.999Z,-1.2
2022-12-11T00:40:32.174Z,-1.2
2022-12-11T00:41:33.334Z,-1.2
2022-12-11T00:42:34.496Z,-1.3
2022-12-11T00:43:35.881Z,-1.3
2022-12-11T00:44:37.298Z,-1.3
2022-12-11T00:45:38.781Z,-1.3
2022-12-11T00:46:40.257Z,-1.3
2022-12-11T00:47:41.162Z,-1.3
2022-12-11T00:48:42.392Z,-1.3
2022-12-11T00:49:48.143Z,-1.3
2022-12-11T00:50:51.335Z,-1.3
2022-12-11T00:51:52.468Z,-1.3
2022-12-11T00:52:53.890Z,-1.3
2022-12-11T00:53:54.775Z,-1.3
2022-12-11T00:54:55.913Z,-1.3
2022-12-11T00:55:57.220Z,-1.3
2022-12-11T00:56:58.108Z,-1.4
2022-12-11T00:57:59.041Z,-1.4
2022-12-11T00:58:59.939Z,-1.4
2022-12-11T01:00:00.586Z,-1.4
2022-12-11T01:01:02.074Z,-1.4
2022-12-11T01:02:03.717Z,-1.4
2022-12-11T01:03:05.200Z,-1.4
2022-12-11T01:04:07.058Z,-1.4
2022-12-11T01:05:09.004Z,-1.4
2022-12-11T01:06:11.483Z,-1.4
2022-12-11T01:07:12.601Z,-1.4
2022-12-11T01:08:13.759Z,-1.4
2022-12-11T01:09:15.391Z,-1.4
2022-12-11T01:10:16.881Z,-1.4
2022-12-11T01:11:18.472Z,-1.4
2022-12-11T01:12:19.599Z,-1.4
2022-12-11T01:13:20.497Z,-1.4
2022-12-11T01:14:21.671Z,-1.4
2022-12-11T01:15:23.086Z,-1.4
2022-12-11T01:16:24.569Z,-1.4
2022-12-11T01:17:26.094Z,-1.4
2022-12-11T01:18:27.269Z,-1.4
2022-12-11T01:19:28.678Z,-1.4
2022-12-11T01:20:30.097Z,-1.4
2022-12-11T01:21:31.515Z,-1.4
2022-12-11T01:22:32.367Z,-1.4
2022-12-11T01:23:33.779Z,-1.4
2022-12-11T01:24:34.673Z,-1.4
2022-12-11T01:25:35.811Z,-1.4
2022-12-11T01:26:37.235Z,-1.4
2022-12-11T01:27:38.364Z,-1.5
2022-12-11T01:28:39.796Z,-1.5
2022-12-11T01:29:41.193Z,-1.5
2022-12-11T01:30:42.659Z,-1.5
2022-12-11T01:31:44.100Z,-1.5
2022-12-11T01:32:45.484Z,-1.5
2022-12-11T01:33:46.899Z,-1.5
2022-12-11T01:34:48.056Z,-1.5
2022-12-11T01:35:49.176Z,-1.5
2022-12-11T01:36:50.070Z,-1.5
2022-12-11T01:37:51.202Z,-1.5
2022-12-11T01:38:52.617Z,-1.5
2022-12-11T01:39:53.757Z,-1.5
2022-12-11T01:40:54.940Z,-1.5
2022-12-11T01:41:56.358Z,-1.5
2022-12-11T01:42:57.246Z,-1.5
2022-12-11T01:43:58.657Z,-1.5
2022-12-11T01:44:59.848Z,-1.5
2022-12-11T01:46:00.714Z,-1.5
2022-12-11T01:47:02.166Z,-1.5
2022-12-11T01:48:03.548Z,-1.5
2022-12-11T01:49:04.439Z,-1.5
2022-12-11T01:50:05.571Z,-1.5
2022-12-11T01:51:06.757Z,-1.5
2022-12-11T01:52:08.189Z,-1.5
2022-12-11T01:53:09.588Z,-1.5
2022-12-11T01:54:10.756Z,-1.5
2022-12-11T01:55:12.522Z,-1.5
2022-12-11T01:56:14.322Z,-1.5
2022-12-11T01:57:15.753Z,-1.5
2022-12-11T01:58:16.631Z,-1.5
2022-12-11T01:59:18.046Z,-1.5
2022-12-11T02:00:19.466Z,-1.5
2022-12-11T02:01:20.627Z,-1.5
2022-12-11T02:02:21.996Z,-1.5
2022-12-11T02:03:23.449Z,-1.5
2022-12-11T02:04:24.588Z,-1.5
2022-12-11T02:05:25.508Z,-1.5
2022-12-11T02:06:26.644Z,-1.5
2022-12-11T02:07:28.066Z,-1.6
2022-12-11T02:08:29.311Z,-1.6
2022-12-11T02:09:30.900Z,-1.5
2022-12-11T02:10:32.039Z,-1.6
2022-12-11T02:11:33.174Z,-1.6
2022-12-11T02:12:34.325Z,-1.6
2022-12-11T02:13:35.204Z,-1.6
2022-12-11T02:14:36.092Z,-1.6
2022-12-11T02:15:37.511Z,-1.6
2022-12-11T02:16:38.934Z,-1.6
2022-12-11T02:17:40.370Z,-1.6
2022-12-11T02:18:41.752Z,-1.6
2022-12-11T02:19:43.167Z,-1.6
2022-12-11T02:20:44.303Z,-1.6
2022-12-11T02:21:45.475Z,-1.6
2022-12-11T02:22:46.898Z,-1.6
2022-12-11T02:23:47.746Z,-1.6
2022-12-11T02:24:48.883Z,-1.6
2022-12-11T02:25:50.295Z,-1.6
2022-12-11T02:26:51.430Z,-1.6
2022-12-11T02:27:52.862Z,-1.6
2022-12-11T02:28:54.267Z,-1.6
2022-12-11T02:29:55.403Z,-1.6
2022-12-11T02:30:56.816Z,-1.6
2022-12-11T02:31:58.231Z,-1.6
2022-12-11T02:32:59.402Z,-1.6
2022-12-11T02:34:00.262Z,-1.6
2022-12-11T02:35:01.675Z,-1.6
2022-12-11T02:36:03.107Z,-1.6
2022-12-11T02:37:04.515Z,-1.6
2022-12-11T02:38:05.942Z,-1.6
2022-12-11T02:39:06.793Z,-1.6
2022-12-11T02:40:07.931Z,-1.6
2022-12-11T02:41:09.117Z,-1.6
2022-12-11T02:42:10.518Z,-1.6
2022-12-11T02:43:11.719Z,-1.6
2022-12-11T02:44:13.121Z,-1.6
2022-12-11T02:45:14.263Z,-1.6
2022-12-11T02:46:15.445Z,-1.6
2022-12-11T02:47:16.806Z,-1.6
2022-12-11T02:48:17.696Z,-1.6
2022-12-11T02:49:18.835Z,-1.6
2022-12-11T02:50:19.970Z,-1.6
2022-12-11T02:51:27.412Z,-1.6
2022-12-11T02:52:28.596Z,-1.6
2022-12-11T02:53:30.021Z,-1.6
2022-12-11T02:54:30.872Z,-1.6
2022-12-11T02:55:32.297Z,-1.6
2022-12-11T02:56:33.424Z,-1.6
2022-12-11T02:57:34.556Z,-1.6
2022-12-11T02:58:35.703Z,-1.6
2022-12-11T02:59:36.873Z,-1.6
2022-12-11T03:00:38.282Z,-1.6
2022-12-11T03:01:39.505Z,-1.6
2022-12-11T03:02:40.887Z,-1.6
2022-12-11T03:03:42.202Z,-1.6
2022-12-11T03:04:43.585Z,-1.6
2022-12-11T03:05:44.485Z,-1.6
2022-12-11T03:06:46.011Z,-1.6
2022-12-11T03:07:47.188Z,-1.6
2022-12-11T03:08:48.753Z,-1.6
2022-12-11T03:09:49.878Z,-1.6
2022-12-11T03:10:51.292Z,-1.6
2022-12-11T03:11:52.436Z,-1.6
2022-12-11T03:12:54.207Z,-1.7
2022-12-11T03:13:55.678Z,-1.7
2022-12-11T03:14:56.837Z,-1.7
2022-12-11T03:15:58.025Z,-1.7
2022-12-11T03:16:59.640Z,-1.7
2022-12-11T03:18:00.780Z,-1.7
2022-12-11T03:19:02.230Z,-1.7
2022-12-11T03:20:03.601Z,-1.7
2022-12-11T03:21:05.024Z,-1.7
2022-12-11T03:22:06.438Z,-1.7
2022-12-11T03:23:07.852Z,-1.7
2022-12-11T03:24:08.997Z,-1.7
2022-12-11T03:25:10.620Z,-1.7
2022-12-11T03:26:12.865Z,-1.7
2022-12-11T03:27:14.303Z,-1.7
2022-12-11T03:28:15.200Z,-1.7
2022-12-11T03:29:16.351Z,-1.7
2022-12-11T03:30:17.493Z,-1.7
2022-12-11T03:31:18.905Z,-1.7
2022-12-11T03:32:20.144Z,-1.7
2022-12-11T03:33:21.667Z,-1.7
2022-12-11T03:34:23.058Z,-1.7
2022-12-11T03:35:24.457Z,-1.7
2022-12-11T03:36:25.884Z,-1.7
2022-12-11T03:37:27.290Z,-1.7
2022-12-11T03:38:28.700Z,-1.7
2022-12-11T03:39:29.833Z,-1.7
2022-12-11T03:40:30.966Z,-1.7
2022-12-11T03:41:32.384Z,-1.7
2022-12-11T03:42:33.803Z,-1.7
2022-12-11T03:43:34.955Z,-1.7
2022-12-11T03:44:36.355Z,-1.7
2022-12-11T03:45:37.213Z,-1.7
2022-12-11T03:46:38.108Z,-1.7
2022-12-11T03:47:39.528Z,-1.7
2022-12-11T03:48:40.949Z,-1.7
2022-12-11T03:49:42.381Z,-1.7
2022-12-11T03:50:43.776Z,-1.7
2022-12-11T03:51:44.941Z,-1.7
2022-12-11T03:52:46.364Z,-1.7
2022-12-11T03:53:47.872Z,-1.7
2022-12-11T03:54:49.041Z,-1.7
2022-12-11T03:55:50.181Z,-1.7
2022-12-11T03:56:51.592Z,-1.7
2022-12-11T03:57:52.725Z,-1.7
2022-12-11T03:58:54.193Z,-1.7
2022-12-11T03:59:55.688Z,-1.7
2022-12-11T04:00:57.111Z,-1.7
2022-12-11T04:01:58.346Z,-1.7
2022-12-11T04:02:59.485Z,-1.7
2022-12-11T04:04:00.677Z,-1.7
2022-12-11T04:05:01.940Z,-1.7
2022-12-11T04:06:03.054Z,-1.7
2022-12-11T04:07:04.467Z,-1.7
2022-12-11T04:08:05.408Z,-1.7
2022-12-11T04:09:06.745Z,-1.7
2022-12-11T04:10:08.148Z,-1.7
2022-12-11T04:11:09.287Z,-1.6
2022-12-11T04:12:10.701Z,-1.7
2022-12-11T04:13:11.837Z,-1.6
2022-12-11T04:14:13.260Z,-1.6
2022-12-11T04:15:14.672Z,-1.7
2022-12-11T04:16:16.120Z,-1.7
2022-12-11T04:17:17.629Z,-1.7
2022-12-11T04:18:19.057Z,-1.7
2022-12-11T04:19:20.236Z,-1.6
2022-12-11T04:20:21.419Z,-1.7
2022-12-11T04:21:22.809Z,-1.7
2022-12-11T04:22:23.943Z,-1.7
2022-12-11T04:23:31.095Z,-1.7
2022-12-11T04:24:32.233Z,-1.7
2022-12-11T04:25:33.366Z,-1.7
2022-12-11T04:26:34.533Z,-1.7
2022-12-11T04:27:35.670Z,-1.6
2022-12-11T04:28:36.843Z,-1.6
2022-12-11T04:29:37.989Z,-1.6
2022-12-11T04:30:39.394Z,-1.6
2022-12-11T04:31:40.301Z,-1.6
2022-12-11T04:32:41.469Z,-1.6
2022-12-11T04:33:42.593Z,-1.6
2022-12-11T04:34:44.027Z,-1.6
2022-12-11T04:35:45.456Z,-1.6
2022-12-11T04:36:46.599Z,-1.6
2022-12-11T04:37:48.011Z,-1.6
2022-12-11T04:38:49.430Z,-1.6
2022-12-11T04:39:50.855Z,-1.6
2022-12-11T04:40:51.984Z,-1.6
2022-12-11T04:41:53.399Z,-1.6
2022-12-11T04:42:54.816Z,-1.6
2022-12-11T04:43:55.951Z,-1.6
2022-12-11T04:44:57.133Z,-1.6
2022-12-11T04:45:58.284Z,-1.6
2022-12-11T04:46:59.823Z,-1.6
2022-12-11T04:48:01.246Z,-1.6
2022-12-11T04:49:02.096Z,-1.6
2022-12-11T04:50:03.519Z,-1.6
2022-12-11T04:51:04.945Z,-1.6
2022-12-11T04:52:06.097Z,-1.6
2022-12-11T04:53:07.236Z,-1.6
2022-12-11T04:54:08.090Z,-1.6
2022-12-11T04:55:09.505Z,-1.6
2022-12-11T04:56:11.676Z,-1.6
2022-12-11T04:57:13.090Z,-1.6
2022-12-11T04:58:14.269Z,-1.6
2022-12-11T04:59:15.152Z,-1.6
2022-12-11T05:00:16.573Z,-1.6
2022-12-11T05:01:18.083Z,-1.6
2022-12-11T05:02:19.897Z,-1.6
2022-12-11T05:03:21.315Z,-1.6
2022-12-11T05:04:22.726Z,-1.6
2022-12-11T05:05:23.349Z,-1.6
2022-12-11T05:06:24.785Z,-1.6
2022-12-11T05:07:25.612Z,-1.6
2022-12-11T05:08:27.078Z,-1.6
2022-12-11T05:09:28.594Z,-1.6
2022-12-11T05:10:29.729Z,-1.6
2022-12-11T05:11:30.866Z,-1.6
2022-12-11T05:12:32.400Z,-1.6
2022-12-11T05:13:33.819Z,-1.6
2022-12-11T05:14:34.957Z,-1.6
2022-12-11T05:15:36.103Z,-1.6
2022-12-11T05:16:36.982Z,-1.6
2022-12-11T05:17:38.395Z,-1.6
2022-12-11T05:18:39.568Z,-1.5
2022-12-11T05:19:40.179Z,-1.5
2022-12-11T05:20:41.605Z,-1.5
2022-12-11T05:21:42.340Z,-1.5
2022-12-11T05:22:43.781Z,-1.5
2022-12-11T05:23:44.410Z,-1.6
2022-12-11T05:24:45.829Z,-1.6
2022-12-11T05:25:47.248Z,-1.6
2022-12-11T05:26:48.380Z,-1.6
2022-12-11T05:27:49.514Z,-1.6
2022-12-11T05:28:50.932Z,-1.6
2022-12-11T05:29:56.230Z,-1.6
2022-12-11T05:31:00.946Z,-1.6
2022-12-11T05:32:02.392Z,-1.6
2022-12-11T05:33:03.528Z,-1.6
2022-12-11T05:34:04.947Z,-1.6
2022-12-11T05:35:06.092Z,-1.6
2022-12-11T05:36:07.502Z,-1.6
2022-12-11T05:37:09.047Z,-1.6
2022-12-11T05:38:10.512Z,-1.7
2022-12-11T05:39:11.677Z,-1.6
2022-12-11T05:40:12.825Z,-1.7
2022-12-11T05:41:19.480Z,-1.7
2022-12-11T05:42:25.473Z,-1.7
2022-12-11T05:43:29.993Z,-1.7
2022-12-11T05:44:31.165Z,-1.7
2022-12-11T05:45:32.583Z,-1.7
2022-12-11T05:46:33.764Z,-1.7
2022-12-11T05:47:35.268Z,-1.7
2022-12-11T05:48:36.465Z,-1.7
2022-12-11T05:49:37.886Z,-1.7
2022-12-11T05:50:39.300Z,-1.7
2022-12-11T05:51:40.755Z,-1.7
2022-12-11T05:52:42.153Z,-1.8
2022-12-11T05:53:43.542Z,-1.8
2022-12-11T05:54:44.961Z,-1.8
2022-12-11T05:55:45.830Z,-1.8
2022-12-11T05:56:50.099Z,-1.8
2022-12-11T05:57:55.302Z,-1.8
2022-12-11T05:58:56.713Z,-1.8
2022-12-11T05:59:57.567Z,-1.8
2022-12-11T06:00:58.713Z,-1.8
2022-12-11T06:02:00.247Z,-1.8
2022-12-11T06:03:01.782Z,-1.8
2022-12-11T06:04:03.440Z,-1.8
2022-12-11T06:05:04.573Z,-1.8
2022-12-11T06:06:05.995Z,-1.8
2022-12-11T06:07:07.124Z,-1.8
2022-12-11T06:08:08.633Z,-1.8
2022-12-11T06:09:10.027Z,-1.8
2022-12-11T06:10:11.446Z,-1.8
2022-12-11T06:11:12.865Z,-1.8
2022-12-11T06:12:13.716Z,-1.9
2022-12-11T06:13:14.336Z,-1.9
2022-12-11T06:14:15.477Z,-1.9
2022-12-11T06:15:16.366Z,-1.9
2022-12-11T06:16:17.860Z,-1.9
2022-12-11T06:17:19.026Z,-1.9
2022-12-11T06:18:20.441Z,-1.9
2022-12-11T06:19:21.333Z,-1.9
2022-12-11T06:20:22.759Z,-1.9
2022-12-11T06:21:23.926Z,-1.9
2022-12-11T06:22:25.089Z,-1.9
2022-12-11T06:23:26.282Z,-1.9
2022-12-11T06:24:27.675Z,-1.9
2022-12-11T06:25:29.108Z,-1.9
2022-12-11T06:26:30.505Z,-1.9
2022-12-11T06:27:31.643Z,-1.9
2022-12-11T06:28:33.061Z,-2
2022-12-11T06:29:34.474Z,-2
2022-12-11T06:30:37.702Z,-2
2022-12-11T06:31:40.187Z,-2
2022-12-11T06:32:41.886Z,-2
2022-12-11T06:33:43.026Z,-2
2022-12-11T06:34:44.442Z,-2
2022-12-11T06:35:45.860Z,-2
2022-12-11T06:36:46.715Z,-2
2022-12-11T06:37:47.617Z,-2
2022-12-11T06:38:49.051Z,-2
2022-12-11T06:39:50.443Z,-2
2022-12-11T06:40:51.586Z,-2
2022-12-11T06:41:53.000Z,-2
2022-12-11T06:42:54.414Z,-2
2022-12-11T06:43:55.827Z,-2
2022-12-11T06:44:56.963Z,-2
2022-12-11T06:46:03.553Z,-2
2022-12-11T06:47:05.793Z,-2
2022-12-11T06:48:06.932Z,-2
2022-12-11T06:49:08.067Z,-2
2022-12-11T06:50:09.206Z,-2
2022-12-11T06:51:10.389Z,-2.1
2022-12-11T06:52:15.063Z,-2
2022-12-11T06:53:19.808Z,-2.1
2022-12-11T06:54:21.009Z,-2.1
2022-12-11T06:55:22.399Z,-2
2022-12-11T06:56:23.533Z,-2.1
2022-12-11T06:57:24.941Z,-2.1
2022-12-11T06:58:26.155Z,-2.1
2022-12-11T06:59:27.290Z,-2.1
2022-12-11T07:00:28.426Z,-2.1
2022-12-11T07:01:29.911Z,-2.1
2022-12-11T07:02:31.471Z,-2.1
2022-12-11T07:03:32.353Z,-2.1
2022-12-11T07:04:33.543Z,-2.1
2022-12-11T07:05:34.709Z,-2.1
2022-12-11T07:06:36.129Z,-2.1
2022-12-11T07:07:37.543Z,-2.1
2022-12-11T07:08:38.716Z,-2.1
2022-12-11T07:09:40.160Z,-2.1
2022-12-11T07:10:41.270Z,-2.1
2022-12-11T07:11:42.414Z,-2.1
2022-12-11T07:12:43.544Z,-2.1
2022-12-11T07:13:44.750Z,-2.1
2022-12-11T07:14:45.882Z,-2.1
2022-12-11T07:15:47.037Z,-2.1
2022-12-11T07:16:48.480Z,-2.1
2022-12-11T07:17:49.647Z,-2.1
2022-12-11T07:18:50.792Z,-2.1
2022-12-11T07:19:52.201Z,-2.1
2022-12-11T07:20:53.356Z,-2.1
2022-12-11T07:21:54.512Z,-2.1
2022-12-11T07:22:55.646Z,-2.1
2022-12-11T07:23:57.064Z,-2.1
2022-12-11T07:25:03.944Z,-2.1
2022-12-11T07:26:05.101Z,-2.1
2022-12-11T07:27:06.477Z,-2.1
2022-12-11T07:28:09.205Z,-2.1
2022-12-11T07:29:17.808Z,-2.2
2022-12-11T07:30:18.988Z,-2.1
2022-12-11T07:31:19.983Z,-2.2
2022-12-11T07:32:21.636Z,-2.2
2022-12-11T07:33:23.424Z,-2.2
2022-12-11T07:34:24.566Z,-2.2
2022-12-11T07:35:25.974Z,-2.2
2022-12-11T07:36:27.140Z,-2.2
2022-12-11T07:37:27.970Z,-2.2
2022-12-11T07:38:29.148Z,-2.2
2022-12-11T07:39:30.284Z,-2.2
2022-12-11T07:40:31.172Z,-2.1
2022-12-11T07:41:32.228Z,-2.2
2022-12-11T07:42:33.596Z,-2.2
2022-12-11T07:43:34.735Z,-2.1
2022-12-11T07:44:36.198Z,-2.1
2022-12-11T07:45:37.370Z,-2.1
2022-12-11T07:46:38.687Z,-2.1
2022-12-11T07:47:40.100Z,-2.1
2022-12-11T07:48:40.957Z,-2.1
2022-12-11T07:49:42.095Z,-2.1
2022-12-11T07:50:43.229Z,-2.1
2022-12-11T07:51:44.659Z,-2.1
2022-12-11T07:52:45.542Z,-2.1
2022-12-11T07:53:46.720Z,-2
2022-12-11T07:54:47.907Z,-2
2022-12-11T07:55:49.328Z,-2
2022-12-11T07:56:53.625Z,-2
2022-12-11T07:57:55.085Z,-2
2022-12-11T07:58:55.941Z,-2
2022-12-11T07:59:57.079Z,-2
2022-12-11T08:00:58.275Z,-1.9
2022-12-11T08:01:59.891Z,-1.9
2022-12-11T08:03:01.107Z,-1.9
2022-12-11T08:04:02.525Z,-1.9
2022-12-11T08:05:03.381Z,-1.8
2022-12-11T08:06:04.799Z,-1.8
2022-12-11T08:07:05.955Z,-1.8
2022-12-11T08:08:07.153Z,-1.8
2022-12-11T08:09:08.728Z,-1.8
2022-12-11T08:10:10.148Z,-1.8
2022-12-11T08:11:11.282Z,-1.7
2022-12-11T08:12:12.458Z,-1.7
2022-12-11T08:13:13.833Z,-1.7
2022-12-11T08:14:15.259Z,-1.7
2022-12-11T08:15:16.439Z,-1.7
2022-12-11T08:16:17.533Z,-1.7
2022-12-11T08:17:18.959Z,-1.6
2022-12-11T08:18:30.606Z,-1.7
2022-12-11T08:19:31.780Z,-1.7
2022-12-11T08:20:32.376Z,-1.7
2022-12-11T08:21:33.792Z,-1.7
2022-12-11T08:22:35.230Z,-1.7
2022-12-11T08:23:36.346Z,-1.7
2022-12-11T08:24:37.762Z,-1.7
2022-12-11T08:25:39.178Z,-1.7
2022-12-11T08:26:40.594Z,-1.7
2022-12-11T08:27:42.178Z,-1.7
2022-12-11T08:28:43.297Z,-1.6
2022-12-11T08:29:44.721Z,-1.6
2022-12-11T08:30:46.254Z,-1.6
2022-12-11T08:31:47.128Z,-1.6
2022-12-11T08:32:48.292Z,-1.6
2022-12-11T08:33:49.654Z,-1.6
2022-12-11T08:34:50.830Z,-1.6
2022-12-11T08:35:51.964Z,-1.6
2022-12-11T08:36:53.123Z,-1.6
2022-12-11T08:37:54.268Z,-1.6
2022-12-11T08:38:55.150Z,-1.6
2022-12-11T08:39:56.350Z,-1.6
2022-12-11T08:40:57.211Z,-1.6
2022-12-11T08:41:58.388Z,-1.6
2022-12-11T08:42:59.904Z,-1.6
2022-12-11T08:44:00.993Z,-1.6
2022-12-11T08:45:02.412Z,-1.5
2022-12-11T08:46:03.737Z,-1.5
2022-12-11T08:47:04.675Z,-1.5
2022-12-11T08:48:06.114Z,-1.5
2022-12-11T08:49:07.270Z,-1.5
2022-12-11T08:50:08.407Z,-1.5
2022-12-11T08:51:09.544Z,-1.4
2022-12-11T08:52:10.158Z,-1.4
2022-12-11T08:53:11.592Z,-1.4
2022-12-11T08:54:12.706Z,-1.4
2022-12-11T08:55:14.297Z,-1.4
2022-12-11T08:56:15.804Z,-1.4
2022-12-11T08:57:16.942Z,-1.4
2022-12-11T08:58:18.121Z,-1.3
2022-12-11T08:59:19.526Z,-1.3
2022-12-11T09:00:20.938Z,-1.3
2022-12-11T09:01:21.795Z,-1.3
2022-12-11T09:02:23.674Z,-1.3
2022-12-11T09:03:24.659Z,-1.3
2022-12-11T09:04:25.509Z,-1.3
2022-12-11T09:05:26.645Z,-1.3
2022-12-11T09:06:27.511Z,-1.3
2022-12-11T09:07:28.945Z,-1.3
2022-12-11T09:08:30.127Z,-1.3
2022-12-11T09:09:31.045Z,-1.3
2022-12-11T09:10:31.896Z,-1.3
2022-12-11T09:11:32.507Z,-1.2
2022-12-11T09:12:33.926Z,-1.2
2022-12-11T09:13:35.101Z,-1.2
2022-12-11T09:14:36.197Z,-1.2
2022-12-11T09:15:37.634Z,-1.2
2022-12-11T09:16:39.107Z,-1.2
2022-12-11T09:17:40.016Z,-1.1
2022-12-11T09:18:40.625Z,-1.1
2022-12-11T09:19:41.503Z,-1.1
2022-12-11T09:20:42.917Z,-1.1
2022-12-11T09:21:44.383Z,-1.1
2022-12-11T09:22:45.753Z,-1.1
2022-12-11T09:23:46.936Z,-1
2022-12-11T09:24:48.344Z,-1
2022-12-11T09:25:49.759Z,-1
2022-12-11T09:26:51.175Z,-1
2022-12-11T09:27:52.355Z,-1
2022-12-11T09:28:53.817Z,-1
2022-12-11T09:29:54.918Z,-0.9
2022-12-11T09:30:56.135Z,-0.9
2022-12-11T09:31:57.602Z,-0.9
2022-12-11T09:32:58.742Z,-0.9
2022-12-11T09:33:59.921Z,-0.9
2022-12-11T09:35:01.054Z,-0.9
2022-12-11T09:36:02.185Z,-0.8
2022-12-11T09:37:03.604Z,-0.8
2022-12-11T09:38:05.020Z,-0.8
2022-12-11T09:39:06.459Z,-0.8
2022-12-11T09:40:08.002Z,-0.8
2022-12-11T09:41:09.469Z,-0.8
2022-12-11T09:42:10.883Z,-0.8
2022-12-11T09:43:11.780Z,-0.8
2022-12-11T09:44:12.970Z,-0.7
2022-12-11T09:45:13.895Z,-0.7
2022-12-11T09:46:15.225Z,-0.7
2022-12-11T09:47:16.233Z,-0.7
2022-12-11T09:48:17.365Z,-0.7
2022-12-11T09:49:18.802Z,-0.7
2022-12-11T09:50:20.199Z,-0.7
2022-12-11T09:51:21.615Z,-0.7
2022-12-11T09:52:22.801Z,-0.6
2022-12-11T09:53:24.217Z,-0.6
2022-12-11T09:54:26.697Z,-0.6
2022-12-11T09:55:28.107Z,-0.6
2022-12-11T09:56:29.242Z,-0.6
2022-12-11T09:57:30.376Z,-0.6
2022-12-11T09:58:31.546Z,-0.6
2022-12-11T09:59:32.741Z,-0.6
2022-12-11T10:00:33.852Z,-0.5
2022-12-11T10:01:35.319Z,-0.5
2022-12-11T10:02:36.956Z,-0.5
2022-12-11T10:03:38.152Z,-0.5
2022-12-11T10:04:39.048Z,-0.5
2022-12-11T10:05:40.424Z,-0.5
2022-12-11T10:06:41.593Z,-0.5
2022-12-11T10:07:42.731Z,-0.4
2022-12-11T10:08:44.293Z,-0.4
2022-12-11T10:09:45.707Z,-0.4
2022-12-11T10:10:47.121Z,-0.4
2022-12-11T10:11:54.542Z,-0.4
2022-12-11T10:12:57.552Z,-0.4
2022-12-11T10:13:58.933Z,-0.3
2022-12-11T10:15:00.485Z,-0.3
2022-12-11T10:16:02.067Z,-0.3
2022-12-11T10:17:03.669Z,-0.3
2022-12-11T10:18:05.463Z,-0.3
2022-12-11T10:19:06.596Z,-0.3
2022-12-11T10:20:07.897Z,-0.2
2022-12-11T10:21:08.989Z,-0.2
2022-12-11T10:22:10.127Z,-0.2
2022-12-11T10:23:11.540Z,-0.2
2022-12-11T10:24:12.672Z,-0.2
2022-12-11T10:25:25.217Z,-0.2
2022-12-11T10:26:27.753Z,-0.1
2022-12-11T10:27:30.171Z,-0.1
2022-12-11T10:28:31.306Z,-0.1
2022-12-11T10:29:32.721Z,-0.1
2022-12-11T10:30:34.671Z,-0.1
2022-12-11T10:31:35.665Z,-0.1
2022-12-11T10:32:36.888Z,0
2022-12-11T10:33:38.026Z,0
2022-12-11T10:34:39.444Z,0
2022-12-11T10:35:40.976Z,0
2022-12-11T10:36:42.078Z,0
2022-12-11T10:37:43.482Z,0
2022-12-11T10:38:44.893Z,0.1
2022-12-11T10:39:46.029Z,0.1
2022-12-11T10:40:47.229Z,0.1
2022-12-11T10:41:48.623Z,0.1
2022-12-11T10:42:49.760Z,0.1
2022-12-11T10:43:50.613Z,0.1
2022-12-11T10:44:51.498Z,0.1
2022-12-11T10:45:52.939Z,0.1
2022-12-11T10:46:54.341Z,0.1
2022-12-11T10:47:55.549Z,0.1
2022-12-11T10:48:56.471Z,0.1
2022-12-11T10:49:57.326Z,0.2
2022-12-11T10:50:58.469Z,0.2
2022-12-11T10:51:59.602Z,0.2
2022-12-11T10:53:00.736Z,0.2
2022-12-11T10:54:06.959Z,0.2
2022-12-11T10:55:08.666Z,0.2
2022-12-11T10:56:10.953Z,0.2
2022-12-11T10:57:12.115Z,0.2
2022-12-11T10:58:12.942Z,0.2
2022-12-11T10:59:14.356Z,0.2
2022-12-11T11:00:24.516Z,0.2
2022-12-11T11:01:25.800Z,0.2
2022-12-11T11:02:27.456Z,0.2
2022-12-11T11:03:29.053Z,0.2
2022-12-11T11:04:30.427Z,0.2
2022-12-11T11:05:31.844Z,0.2
2022-12-11T11:06:33.278Z,0.2
2022-12-11T11:07:34.675Z,0.2
2022-12-11T11:08:35.808Z,0.2
2022-12-11T11:09:37.223Z,0.2
2022-12-11T11:10:38.358Z,0.2
2022-12-11T11:11:39.348Z,0.3
2022-12-11T11:12:40.453Z,0.3
2022-12-11T11:13:41.621Z,0.3
2022-12-11T11:14:42.795Z,0.3
2022-12-11T11:15:44.262Z,0.3
2022-12-11T11:16:45.636Z,0.3
2022-12-11T11:17:54.450Z,0.3
2022-12-11T11:18:57.217Z,0.3
2022-12-11T11:19:58.127Z,0.3
2022-12-11T11:20:59.542Z,0.3
2022-12-11T11:22:00.976Z,0.3
2022-12-11T11:23:01.821Z,0.3
2022-12-11T11:24:02.708Z,0.3
2022-12-11T11:25:03.597Z,0.3
2022-12-11T11:26:05.012Z,0.4
2022-12-11T11:27:13.923Z,0.4
2022-12-11T11:28:15.567Z,0.4
2022-12-11T11:29:16.964Z,0.4
2022-12-11T11:30:18.379Z,0.4
2022-12-11T11:31:19.841Z,0.4
2022-12-11T11:32:21.172Z,0.4
2022-12-11T11:33:22.295Z,0.4
2022-12-11T11:34:23.425Z,0.4
2022-12-11T11:35:24.845Z,0.4
2022-12-11T11:36:25.976Z,0.4
2022-12-11T11:37:27.568Z,0.4
2022-12-11T11:38:28.942Z,0.4
2022-12-11T11:39:30.357Z,0.4
2022-12-11T11:40:30.970Z,0.4
2022-12-11T11:41:32.111Z,0.4
2022-12-11T11:42:32.739Z,0.3
2022-12-11T11:43:33.931Z,0.3
2022-12-11T11:44:35.033Z,0.3
2022-12-11T11:45:35.892Z,0.3
2022-12-11T11:46:37.411Z,0.3
2022-12-11T11:47:39.003Z,0.3
2022-12-11T11:48:40.373Z,0.3
2022-12-11T11:49:41.509Z,0.3
2022-12-11T11:50:42.924Z,0.3
2022-12-11T11:51:44.103Z,0.3
2022-12-11T11:52:45.534Z,0.3
2022-12-11T11:53:46.928Z,0.3
2022-12-11T11:54:48.348Z,0.3
2022-12-11T11:55:49.760Z,0.3
2022-12-11T11:56:51.175Z,0.3
2022-12-11T11:57:52.649Z,0.3
2022-12-11T11:58:53.770Z,0.4
2022-12-11T11:59:54.679Z,0.4
2022-12-11T12:00:55.855Z,0.4
2022-12-11T12:01:57.284Z,0.4
2022-12-11T12:02:58.760Z,0.4
2022-12-11T12:04:00.276Z,0.4
2022-12-11T12:05:01.432Z,0.4
2022-12-11T12:06:02.293Z,0.4
2022-12-11T12:07:03.707Z,0.4
2022-12-11T12:08:11.136Z,0.4
2022-12-11T12:09:12.782Z,0.4
2022-12-11T12:10:14.029Z,0.4
2022-12-11T12:11:15.622Z,0.5
2022-12-11T12:12:21.031Z,0.5
2022-12-11T12:13:50.636Z,0.5
2022-12-11T12:14:52.721Z,0.5
2022-12-11T12:15:54.163Z,0.5
2022-12-11T12:16:55.278Z,0.5
2022-12-11T12:17:56.979Z,0.5
2022-12-11T12:18:58.527Z,0.5
2022-12-11T12:19:59.611Z,0.5
2022-12-11T12:21:01.033Z,0.5
2022-12-11T12:22:02.446Z,0.5
2022-12-11T12:23:03.338Z,0.5
2022-12-11T12:24:04.493Z,0.5
2022-12-11T12:25:05.612Z,0.5
2022-12-11T12:26:06.497Z,0.4
2022-12-11T12:27:23.022Z,0.4
2022-12-11T12:28:53.790Z,0.4
2022-12-11T12:29:55.213Z,0.5
2022-12-11T12:30:56.328Z,0.4
2022-12-11T12:31:57.826Z,0.5
2022-12-11T12:32:59.085Z,0.5
2022-12-11T12:33:59.976Z,0.5
2022-12-11T12:35:01.163Z,0.4
2022-12-11T12:36:06.751Z,0.4
2022-12-11T12:37:08.519Z,0.4
2022-12-11T12:38:09.938Z,0.4
2022-12-11T12:39:11.112Z,0.4
2022-12-11T12:40:12.284Z,0.4
2022-12-11T12:41:13.701Z,0.4
2022-12-11T12:42:14.873Z,0.4
2022-12-11T12:43:17.428Z,0.4
2022-12-11T12:44:18.625Z,0.4
2022-12-11T12:45:23.286Z,0.4
2022-12-11T12:46:24.401Z,0.4
2022-12-11T12:47:25.532Z,0.4
2022-12-11T12:48:26.664Z,0.4
2022-12-11T12:49:28.082Z,0.4
2022-12-11T12:50:29.235Z,0.4
2022-12-11T12:51:30.649Z,0.4
2022-12-11T12:52:32.049Z,0.4
2022-12-11T12:53:33.183Z,0.4
2022-12-11T12:54:34.316Z,0.4
2022-12-11T12:55:35.733Z,0.4
2022-12-11T12:56:36.883Z,0.4
2022-12-11T12:57:38.284Z,0.4
2022-12-11T12:58:39.454Z,0.4
2022-12-11T12:59:40.865Z,0.4
2022-12-11T13:00:42.445Z,0.4
2022-12-11T13:01:44.477Z,0.4
2022-12-11T13:02:45.936Z,0.4
2022-12-11T13:03:47.121Z,0.4
2022-12-11T13:04:55.799Z,0.4
2022-12-11T13:05:57.249Z,0.4
2022-12-11T13:06:58.409Z,0.4
2022-12-11T13:07:59.852Z,0.4
2022-12-11T13:09:01.048Z,0.4
2022-12-11T13:10:02.184Z,0.4
2022-12-11T13:11:03.601Z,0.3
2022-12-11T13:12:04.795Z,0.3
2022-12-11T13:13:05.908Z,0.3
2022-12-11T13:14:07.041Z,0.3
2022-12-11T13:15:07.898Z,0.3
2022-12-11T13:16:09.362Z,0.3
2022-12-11T13:17:10.917Z,0.3
2022-12-11T13:18:12.050Z,0.3
2022-12-11T13:19:13.259Z,0.3
2022-12-11T13:20:14.100Z,0.3
2022-12-11T13:21:15.262Z,0.3
2022-12-11T13:22:16.657Z,0.3
2022-12-11T13:23:18.064Z,0.3
2022-12-11T13:24:19.475Z,0.3
2022-12-11T13:25:20.620Z,0.3
2022-12-11T13:26:22.027Z,0.2
2022-12-11T13:27:22.965Z,0.2
2022-12-11T13:28:24.066Z,0.2
2022-12-11T13:29:25.243Z,0.2
2022-12-11T13:30:26.661Z,0.2
2022-12-11T13:31:28.122Z,0.2
2022-12-11T13:32:29.364Z,0.2
2022-12-11T13:33:30.495Z,0.2
2022-12-11T13:34:31.900Z,0.2
2022-12-11T13:35:33.310Z,0.1
2022-12-11T13:36:34.473Z,0.1
2022-12-11T13:37:35.874Z,0.1
2022-12-11T13:38:37.319Z,0.1
2022-12-11T13:39:38.443Z,0.1
2022-12-11T13:40:39.862Z,0
2022-12-11T13:41:41.000Z,0
2022-12-11T13:42:42.415Z,0
2022-12-11T13:43:43.836Z,0
2022-12-11T13:44:44.720Z,0
2022-12-11T13:45:45.886Z,0
2022-12-11T13:46:47.061Z,0
2022-12-11T13:47:48.231Z,0
2022-12-11T13:48:49.121Z,0
2022-12-11T13:49:49.945Z,0